Time;durP1;ratioP1;P1;durP2;ratioP2;P2;SDS_P1;SDS_P2;PMS_P1;PMS_P2;Temp;Humidity;BMP_temperature;BMP_pressure;BME280_temperature;BME280_humidity;BME280_pressure;Samples;Min_cycle;Max_cycle;Signal;HPM_P1;HPM_P2
2023/01/25 00:00:44;;;;;;;34.75;22.50;;;0.80;93.00;;;;;;5034072;28;20037;-77
2023/01/25 00:03:10;;;;;;;35.75;21.90;;;0.70;93.10;;;;;;5034204;28;20036;-78
2023/01/25 00:05:36;;;;;;;34.42;22.13;;;0.70;93.30;;;;;;5049131;28;20184;-80
2023/01/25 00:08:09;;;;;;;39.55;22.90;;;0.60;93.40;;;;;;5033938;28;20037;-79
2023/01/25 00:10:37;;;;;;;37.72;23.52;;;0.60;93.50;;;;;;5034085;28;20041;-79
2023/01/25 00:13:03;;;;;;;38.33;22.52;;;0.60;93.60;;;;;;5017558;28;20037;-81
2023/01/25 00:15:29;;;;;;;37.45;23.30;;;0.70;93.70;;;;;;4993112;28;1172120;-79
2023/01/25 00:17:55;;;;;;;36.78;22.38;;;0.70;93.60;;;;;;5034639;28;20044;-82
2023/01/25 00:20:20;;;;;;;38.05;23.45;;;0.70;93.60;;;;;;5034615;28;20374;-81
2023/01/25 00:22:46;;;;;;;37.92;23.33;;;0.70;93.40;;;;;;5049948;28;20182;-80
2023/01/25 00:25:12;;;;;;;37.15;22.77;;;0.70;93.30;;;;;;5034465;28;20041;-78
2023/01/25 00:27:37;;;;;;;40.35;24.63;;;0.70;93.30;;;;;;5034475;28;20048;-80
2023/01/25 00:30:04;;;;;;;39.38;25.08;;;0.70;93.60;;;;;;5034533;28;20037;-80
2023/01/25 00:32:46;;;;;;;39.70;25.25;;;0.70;93.60;;;;;;5051134;28;20119;-79
2023/01/25 00:35:12;;;;;;;56.58;33.78;;;0.70;93.70;;;;;;5050980;28;20120;-80
2023/01/25 00:37:42;;;;;;;88.00;48.70;;;0.70;93.40;;;;;;5034182;28;20063;-80
2023/01/25 00:40:10;;;;;;;77.88;42.22;;;0.70;93.60;;;;;;5034466;28;20581;-80
2023/01/25 00:42:36;;;;;;;69.50;36.67;;;0.70;93.50;;;;;;5017971;28;20048;-82
2023/01/25 00:45:02;;;;;;;86.57;42.90;;;0.70;93.40;;;;;;5018099;28;20037;-80
2023/01/25 00:47:28;;;;;;;144.10;65.80;;;0.60;93.50;;;;;;5020103;28;20029;-79
2023/01/25 00:49:54;;;;;;;558.40;254.45;;;0.60;93.60;;;;;;5021363;28;20045;-81
2023/01/25 00:52:21;;;;;;;238.18;90.70;;;0.60;93.80;;;;;;5021624;28;20032;-84
2023/01/25 00:54:46;;;;;;;47.90;29.02;;;0.70;93.60;;;;;;5053451;28;20041;-81
2023/01/25 00:57:12;;;;;;;67.70;35.63;;;0.60;93.50;;;;;;5054339;28;20103;-80
2023/01/25 00:59:43;;;;;;;48.33;26.85;;;0.60;93.90;;;;;;5037964;28;20106;-80
2023/01/25 01:02:09;;;;;;;45.63;25.80;;;0.60;93.80;;;;;;5038285;28;20505;-81
2023/01/25 01:04:35;;;;;;;45.15;27.45;;;0.60;93.80;;;;;;5037476;28;20041;-83
2023/01/25 01:07:01;;;;;;;50.53;28.45;;;0.60;93.80;;;;;;5037609;28;20051;-82
2023/01/25 01:09:27;;;;;;;347.98;118.45;;;0.60;93.90;;;;;;5054168;28;20040;-81
2023/01/25 01:11:53;;;;;;;238.35;82.80;;;0.60;94.00;;;;;;5036930;28;20378;-82
2023/01/25 01:14:21;;;;;;;239.25;87.18;;;0.60;94.00;;;;;;5037302;28;20489;-82
2023/01/25 01:16:46;;;;;;;132.75;54.58;;;0.50;94.00;;;;;;5053880;28;20523;-83
2023/01/25 01:19:13;;;;;;;177.20;69.95;;;0.60;94.10;;;;;;5020797;28;20049;-80
2023/01/25 01:21:38;;;;;;;366.17;124.10;;;0.60;93.90;;;;;;5053887;28;20080;-82
2023/01/25 01:24:05;;;;;;;186.63;67.80;;;0.50;93.80;;;;;;5021048;28;20107;-80
2023/01/25 01:26:30;;;;;;;140.98;54.50;;;0.50;93.80;;;;;;5052580;28;20040;-81
2023/01/25 01:28:57;;;;;;;125.28;50.65;;;0.50;94.00;;;;;;5037222;28;20037;-82
2023/01/25 01:31:23;;;;;;;265.20;90.55;;;0.40;94.00;;;;;;5037138;28;20033;-81
2023/01/25 01:33:54;;;;;;;281.60;98.95;;;0.40;94.20;;;;;;5036870;28;20041;-81
2023/01/25 01:36:22;;;;;;;106.50;45.13;;;0.40;94.20;;;;;;5037008;28;20090;-81
2023/01/25 01:38:48;;;;;;;56.80;32.40;;;0.40;94.20;;;;;;5037279;28;20056;-82
2023/01/25 01:41:14;;;;;;;62.08;33.38;;;0.50;94.10;;;;;;5019630;28;20041;-80
2023/01/25 01:43:41;;;;;;;131.88;59.75;;;0.50;94.10;;;;;;5036884;28;20045;-80
2023/01/25 01:46:14;;;;;;;170.00;73.65;;;0.50;94.10;;;;;;5070088;28;20497;-81
2023/01/25 01:48:42;;;;;;;97.63;48.55;;;0.50;93.90;;;;;;5053682;28;20465;-83
2023/01/25 01:51:17;;;;;;;63.42;35.58;;;0.40;93.90;;;;;;5069101;28;20098;-81
2023/01/25 01:53:51;;;;;;;58.83;33.17;;;0.40;94.00;;;;;;5053463;28;20037;-82
2023/01/25 01:56:29;;;;;;;65.55;36.90;;;0.40;94.20;;;;;;5036749;28;20500;-81
2023/01/25 01:58:56;;;;;;;87.45;49.45;;;0.40;94.10;;;;;;5035627;28;20099;-82
2023/01/25 02:01:22;;;;;;;62.08;34.50;;;0.50;94.20;;;;;;5020283;28;20051;-81
2023/01/25 02:03:49;;;;;;;68.35;37.65;;;0.50;94.30;;;;;;5036423;28;20233;-79
2023/01/25 02:06:30;;;;;;;60.25;36.17;;;0.50;94.40;;;;;;5051770;28;20073;-81
2023/01/25 02:08:56;;;;;;;70.57;37.88;;;0.50;94.30;;;;;;5053274;28;20037;-82
2023/01/25 02:11:22;;;;;;;60.85;37.00;;;0.50;94.30;;;;;;5019889;28;20037;-80
2023/01/25 02:13:49;;;;;;;66.60;38.78;;;0.40;94.30;;;;;;5036288;28;20045;-81
2023/01/25 02:16:23;;;;;;;65.80;35.10;;;0.40;94.30;;;;;;5052760;28;20056;-79
2023/01/25 02:18:50;;;;;;;62.38;34.50;;;0.40;94.40;;;;;;5053153;28;20401;-81
2023/01/25 02:21:15;;;;;;;63.42;33.83;;;0.40;94.40;;;;;;5052784;28;20041;-83
2023/01/25 02:23:53;;;;;;;60.92;32.95;;;0.30;94.40;;;;;;5051251;28;20045;-80
2023/01/25 02:26:20;;;;;;;63.50;33.10;;;0.40;94.30;;;;;;5032904;28;20520;-81
2023/01/25 02:28:58;;;;;;;62.95;34.35;;;0.30;94.10;;;;;;5016487;28;20091;-81
2023/01/25 02:31:24;;;;;;;61.75;34.05;;;0.30;94.10;;;;;;5032926;28;20069;-81
2023/01/25 02:33:49;;;;;;;63.17;34.35;;;0.40;94.10;;;;;;5016112;28;20567;-82
2023/01/25 02:36:25;;;;;;;63.50;35.10;;;0.30;94.30;;;;;;5032560;28;20073;-80
2023/01/25 02:39:06;;;;;;;69.28;36.47;;;0.30;94.30;;;;;;5032836;28;20119;-80
2023/01/25 02:41:32;;;;;;;64.57;34.78;;;0.30;94.30;;;;;;5046883;28;20041;-81
2023/01/25 02:44:03;;;;;;;65.35;36.03;;;0.30;94.40;;;;;;5052313;28;20520;-79
2023/01/25 02:46:35;;;;;;;63.70;35.05;;;0.20;94.50;;;;;;5052416;28;20443;-81
2023/01/25 02:49:01;;;;;;;64.22;34.47;;;0.20;94.40;;;;;;5052280;28;20047;-80
2023/01/25 02:51:29;;;;;;;68.95;35.38;;;0.20;94.50;;;;;;5052247;28;20040;-82
2023/01/25 02:53:55;;;;;;;61.38;34.10;;;0.20;94.50;;;;;;5052077;28;20045;-81
2023/01/25 02:56:22;;;;;;;62.72;33.08;;;0.10;94.40;;;;;;5035042;28;20037;-83
2023/01/25 02:58:48;;;;;;;63.60;32.20;;;0.20;94.50;;;;;;5052123;28;20094;-81
2023/01/25 03:01:14;;;;;;;62.40;34.97;;;0.20;94.30;;;;;;5035388;28;20040;-82
2023/01/25 03:03:40;;;;;;;58.13;31.48;;;0.20;94.00;;;;;;5035753;28;20033;-82
2023/01/25 03:06:06;;;;;;;64.00;32.78;;;0.20;93.90;;;;;;5051817;28;20045;-82
2023/01/25 03:08:33;;;;;;;63.60;31.63;;;0.20;93.90;;;;;;5035456;28;20037;-81
2023/01/25 03:11:01;;;;;;;58.78;30.63;;;0.10;94.00;;;;;;5035356;28;20435;-81
2023/01/25 03:13:26;;;;;;;63.45;31.65;;;0.10;94.00;;;;;;5051296;28;20041;-81
2023/01/25 03:15:58;;;;;;;61.67;32.92;;;0.10;93.90;;;;;;5034907;28;20508;-79
2023/01/25 03:18:24;;;;;;;61.95;32.33;;;0.00;94.00;;;;;;5051875;28;20110;-81
2023/01/25 03:20:50;;;;;;;66.45;34.22;;;0.10;94.10;;;;;;5052015;28;20044;-82
2023/01/25 03:23:16;;;;;;;65.53;33.28;;;0.00;94.30;;;;;;5035214;28;20045;-83
2023/01/25 03:25:41;;;;;;;64.15;33.03;;;0.00;94.40;;;;;;5035115;28;20136;-81
2023/01/25 03:28:07;;;;;;;65.32;33.47;;;0.00;94.40;;;;;;5050873;28;20036;-80
2023/01/25 03:30:33;;;;;;;62.67;33.03;;;0.00;94.70;;;;;;5051629;28;20401;-83
2023/01/25 03:32:59;;;;;;;62.00;33.03;;;0.00;94.80;;;;;;5034992;28;20072;-83
2023/01/25 03:35:25;;;;;;;61.85;32.85;;;0.00;94.70;;;;;;5035022;28;20096;-81
2023/01/25 03:37:50;;;;;;;63.05;34.15;;;0.10;94.70;;;;;;5035043;28;20048;-80
2023/01/25 03:40:16;;;;;;;65.57;34.92;;;0.10;94.70;;;;;;5035222;28;20045;-80
2023/01/25 03:42:42;;;;;;;60.60;33.85;;;0.10;94.60;;;;;;5034938;28;20055;-81
2023/01/25 03:45:08;;;;;;;66.47;35.63;;;0.10;94.50;;;;;;5034795;28;20071;-83
2023/01/25 03:47:34;;;;;;;69.00;35.90;;;0.10;94.60;;;;;;5033792;28;20041;-81
2023/01/25 03:50:00;;;;;;;67.47;37.30;;;0.10;94.40;;;;;;5018546;28;20037;-83
2023/01/25 03:55:49;;;;;;;70.25;36.55;;;0.20;94.30;;;;;;5055571;28;20435;-82
2023/01/25 03:58:15;;;;;;;66.15;33.47;;;0.10;94.20;;;;;;5034844;28;20044;-81
2023/01/25 04:00:40;;;;;;;68.80;35.20;;;0.10;94.30;;;;;;5034925;28;20068;-81
2023/01/25 04:03:06;;;;;;;67.43;35.55;;;0.10;94.20;;;;;;5034264;28;20071;-81
2023/01/25 04:05:32;;;;;;;64.80;33.40;;;0.10;94.20;;;;;;5018369;28;20485;-80
2023/01/25 04:07:57;;;;;;;60.03;31.75;;;0.10;94.10;;;;;;5018224;28;20458;-81
2023/01/25 04:10:23;;;;;;;62.90;32.97;;;0.00;93.80;;;;;;5051261;28;20044;-80
2023/01/25 04:12:48;;;;;;;63.63;33.22;;;0.00;94.00;;;;;;5034977;28;20037;-81
2023/01/25 04:15:14;;;;;;;71.50;35.83;;;0.00;94.00;;;;;;5051340;28;20064;-81
2023/01/25 04:17:40;;;;;;;63.03;34.92;;;-3276.70;94.30;;;;;;5050168;28;20869;-81
2023/01/25 04:20:06;;;;;;;66.72;33.60;;;-3276.70;94.50;;;;;;5034686;28;20479;-80
2023/01/25 04:22:32;;;;;;;69.97;36.45;;;0.00;94.30;;;;;;5053860;28;20060;-81
2023/01/25 04:24:57;;;;;;;68.25;34.45;;;0.00;94.30;;;;;;5038394;28;20400;-80
2023/01/25 04:27:23;;;;;;;61.13;34.10;;;0.00;94.50;;;;;;5054863;28;20387;-80
2023/01/25 04:29:49;;;;;;;67.60;35.22;;;0.00;94.20;;;;;;5038558;28;20037;-81
2023/01/25 04:32:14;;;;;;;61.30;33.15;;;0.00;94.00;;;;;;5038393;28;20067;-81
2023/01/25 04:34:40;;;;;;;64.63;34.28;;;0.00;94.00;;;;;;5021719;28;20033;-84
2023/01/25 04:37:06;;;;;;;67.55;34.90;;;-3276.70;94.30;;;;;;5053811;28;20133;-82
2023/01/25 04:39:31;;;;;;;60.75;30.95;;;-3276.70;94.40;;;;;;5038372;28;20045;-81
2023/01/25 04:41:57;;;;;;;61.55;30.98;;;-3276.70;94.20;;;;;;5038165;28;20037;-82
2023/01/25 04:44:23;;;;;;;58.80;32.90;;;-3276.70;94.20;;;;;;5054552;28;20044;-84
2023/01/25 04:46:48;;;;;;;62.22;34.03;;;-3276.70;94.10;;;;;;5037909;28;20127;-82
2023/01/25 04:49:14;;;;;;;58.78;33.42;;;-3276.70;94.10;;;;;;5021686;28;20041;-80
2023/01/25 04:51:40;;;;;;;63.75;33.25;;;-3276.70;94.10;;;;;;5021376;28;20067;-83
2023/01/25 04:54:05;;;;;;;63.42;35.33;;;-3276.70;94.10;;;;;;5037009;28;20040;-82
2023/01/25 04:56:31;;;;;;;68.25;35.25;;;-3276.70;94.20;;;;;;5021376;28;20413;-82
2023/01/25 04:58:57;;;;;;;60.47;32.28;;;-3276.70;94.30;;;;;;5021317;28;20131;-80
2023/01/25 05:01:22;;;;;;;61.30;34.78;;;-3276.70;94.20;;;;;;5021227;28;20048;-81
2023/01/25 05:03:48;;;;;;;58.25;30.25;;;-3276.70;94.30;;;;;;5021136;28;20132;-81
2023/01/25 05:06:14;;;;;;;60.17;32.75;;;0.00;94.20;;;;;;5037779;28;20033;-80
2023/01/25 05:08:39;;;;;;;60.35;32.97;;;-3276.70;94.00;;;;;;5054151;28;20080;-82
2023/01/25 05:11:05;;;;;;;61.97;33.40;;;-3276.70;94.10;;;;;;5053467;28;20124;-81
2023/01/25 05:13:31;;;;;;;60.95;33.83;;;-3276.70;94.10;;;;;;5037545;28;20473;-82
2023/01/25 05:15:56;;;;;;;65.63;34.97;;;-3276.70;94.00;;;;;;5036939;28;20089;-82
2023/01/25 05:18:22;;;;;;;59.33;32.65;;;0.00;93.90;;;;;;5037272;28;20045;-82
2023/01/25 05:20:54;;;;;;;66.18;36.00;;;0.00;93.90;;;;;;5020890;28;20045;-82
2023/01/25 05:23:21;;;;;;;64.88;35.53;;;0.00;94.00;;;;;;5037307;28;20049;-82
2023/01/25 05:28:31;;;;;;;60.50;34.00;;;-3276.70;94.20;;;;;;5033901;28;20056;-80
2023/01/25 05:30:56;;;;;;;64.00;35.05;;;-3276.70;94.30;;;;;;5050716;28;20041;-81
2023/01/25 05:33:22;;;;;;;65.63;34.90;;;0.00;94.20;;;;;;5033849;28;20033;-81
2023/01/25 05:35:48;;;;;;;61.55;33.72;;;0.00;94.10;;;;;;5050594;28;20034;-79
2023/01/25 05:38:13;;;;;;;63.50;34.28;;;0.00;94.20;;;;;;5017269;28;20029;-80
2023/01/25 05:40:39;;;;;;;62.85;34.20;;;0.00;94.20;;;;;;5017209;28;20088;-82
2023/01/25 05:43:05;;;;;;;63.63;35.53;;;0.00;94.10;;;;;;5036603;28;20037;-80
2023/01/25 05:45:30;;;;;;;66.65;35.35;;;0.00;94.10;;;;;;5020366;28;20072;-81
2023/01/25 05:47:57;;;;;;;58.42;31.15;;;0.00;94.10;;;;;;5020617;28;20128;-82
2023/01/25 05:50:24;;;;;;;58.28;33.78;;;0.00;94.10;;;;;;5053488;28;20099;-78
2023/01/25 05:52:50;;;;;;;56.88;29.83;;;0.10;94.00;;;;;;5036726;28;20040;-81
2023/01/25 05:55:16;;;;;;;57.38;31.70;;;0.10;94.00;;;;;;5036713;28;20378;-83
2023/01/25 05:57:41;;;;;;;60.17;32.28;;;0.10;93.90;;;;;;5036349;28;20400;-79
2023/01/25 06:00:11;;;;;;;57.88;34.08;;;0.10;93.80;;;;;;5036916;28;20124;-80
2023/01/25 06:02:36;;;;;;;61.40;32.05;;;0.00;93.80;;;;;;5036586;28;20043;-81
2023/01/25 06:05:04;;;;;;;61.95;33.75;;;0.00;94.00;;;;;;5053092;28;20041;-82
2023/01/25 06:07:35;;;;;;;57.78;33.00;;;0.00;94.00;;;;;;5020224;28;20099;-80
2023/01/25 06:10:01;;;;;;;62.80;35.47;;;0.00;94.00;;;;;;5036498;28;20041;-80
2023/01/25 06:12:27;;;;;;;65.57;34.13;;;0.00;93.90;;;;;;5036737;28;20439;-82
2023/01/25 06:14:52;;;;;;;60.30;33.97;;;0.00;94.00;;;;;;5035709;28;20120;-82
2023/01/25 06:17:18;;;;;;;59.75;34.67;;;0.00;94.10;;;;;;5052685;28;20057;-79
2023/01/25 06:19:44;;;;;;;60.92;33.10;;;0.00;94.00;;;;;;5052781;28;20134;-81
2023/01/25 06:22:09;;;;;;;56.63;32.25;;;0.00;94.10;;;;;;5052879;28;20195;-81
2023/01/25 06:24:35;;;;;;;63.35;34.22;;;0.10;94.10;;;;;;5036112;28;20047;-81
2023/01/25 06:27:01;;;;;;;62.78;34.58;;;0.10;94.00;;;;;;5036194;28;20045;-80
2023/01/25 06:29:27;;;;;;;62.90;34.33;;;0.10;94.00;;;;;;5036050;28;20397;-80
2023/01/25 06:31:54;;;;;;;64.57;35.42;;;0.10;94.00;;;;;;5035282;28;20059;-81
2023/01/25 06:34:19;;;;;;;61.13;34.00;;;0.10;94.10;;;;;;5036420;28;20041;-80
2023/01/25 06:36:47;;;;;;;62.25;34.35;;;0.10;94.00;;;;;;5052818;28;20443;-82
2023/01/25 06:39:13;;;;;;;58.90;33.92;;;0.10;94.10;;;;;;5036007;28;20091;-79
2023/01/25 06:41:39;;;;;;;59.30;32.80;;;0.20;94.10;;;;;;5052630;28;20420;-82
2023/01/25 06:44:05;;;;;;;64.80;34.97;;;0.20;93.90;;;;;;5035262;28;20103;-81
2023/01/25 06:46:32;;;;;;;62.00;33.25;;;0.20;93.90;;;;;;5035641;28;20064;-80
2023/01/25 06:48:57;;;;;;;58.03;30.95;;;0.10;94.00;;;;;;5035024;28;20037;-80
2023/01/25 06:51:23;;;;;;;60.70;31.88;;;0.10;94.00;;;;;;5035932;28;20363;-82
2023/01/25 06:53:49;;;;;;;59.67;32.05;;;0.10;94.00;;;;;;5035646;28;20037;-82
2023/01/25 06:56:17;;;;;;;60.97;32.55;;;0.10;94.10;;;;;;5035368;28;20041;-81
2023/01/25 06:58:44;;;;;;;59.28;28.92;;;0.10;94.10;;;;;;5034469;28;20415;-81
2023/01/25 07:01:13;;;;;;;60.55;31.88;;;0.10;94.20;;;;;;5035321;28;20089;-80
2023/01/25 07:03:40;;;;;;;53.15;28.95;;;0.10;93.90;;;;;;5024274;28;20037;-80
2023/01/25 07:06:08;;;;;;;60.67;31.10;;;0.10;94.00;;;;;;5045573;28;20041;-81
2023/01/25 07:08:35;;;;;;;61.05;31.27;;;0.10;94.10;;;;;;5068671;28;20037;-79
2023/01/25 07:11:03;;;;;;;60.40;31.33;;;0.10;94.10;;;;;;5051968;28;20048;-80
2023/01/25 07:13:30;;;;;;;65.30;33.22;;;0.10;94.10;;;;;;5051759;28;20047;-79
2023/01/25 07:15:59;;;;;;;60.30;31.00;;;0.10;94.30;;;;;;5051606;28;20064;-77
2023/01/25 07:18:26;;;;;;;67.00;31.38;;;0.10;94.30;;;;;;5051998;28;20163;-81
2023/01/25 07:20:52;;;;;;;59.63;31.20;;;0.10;94.20;;;;;;5049468;28;20047;-79
2023/01/25 07:23:18;;;;;;;61.85;31.67;;;0.10;94.30;;;;;;5034824;28;20044;-81
2023/01/25 07:25:46;;;;;;;65.70;33.00;;;0.10;94.50;;;;;;5051590;28;20041;-80
2023/01/25 07:28:12;;;;;;;61.65;33.25;;;0.10;94.60;;;;;;5051895;28;20033;-80
2023/01/25 07:30:38;;;;;;;65.55;33.40;;;0.10;94.60;;;;;;5035074;28;20044;-81
2023/01/25 07:33:04;;;;;;;61.67;33.40;;;0.10;94.50;;;;;;5035101;28;20037;-79
2023/01/25 07:35:31;;;;;;;66.18;34.15;;;0.20;94.30;;;;;;5051774;28;20043;-81
2023/01/25 07:37:56;;;;;;;66.30;34.05;;;0.20;94.50;;;;;;5034150;28;20056;-82
2023/01/25 07:40:25;;;;;;;64.03;32.50;;;0.20;94.50;;;;;;5018597;28;20037;-85
2023/01/25 07:42:51;;;;;;;64.78;32.22;;;0.20;94.40;;;;;;5034818;28;20049;-80
2023/01/25 07:45:17;;;;;;;68.03;34.78;;;0.20;94.40;;;;;;5034947;28;20084;-83
2023/01/25 07:47:43;;;;;;;64.68;31.83;;;0.30;94.20;;;;;;5034849;28;20076;-81
2023/01/25 07:50:10;;;;;;;61.42;32.58;;;0.30;94.40;;;;;;5051418;28;20091;-82
2023/01/25 07:52:36;;;;;;;63.75;33.47;;;0.20;94.50;;;;;;5051640;28;20413;-81
2023/01/25 07:55:01;;;;;;;67.80;32.03;;;0.30;94.40;;;;;;5050604;28;20036;-83
2023/01/25 07:57:27;;;;;;;67.03;32.00;;;0.30;94.30;;;;;;5037173;28;20500;-82
2023/01/25 07:59:53;;;;;;;67.55;32.38;;;0.30;94.40;;;;;;5055457;28;20041;-82
2023/01/25 08:02:19;;;;;;;71.88;33.85;;;0.30;94.40;;;;;;5038340;28;20056;-85
2023/01/25 08:04:45;;;;;;;69.03;34.00;;;0.30;94.50;;;;;;5038522;28;20063;-82
2023/01/25 08:07:12;;;;;;;73.55;36.80;;;0.30;94.50;;;;;;5038262;28;20135;-83
2023/01/25 08:09:39;;;;;;;71.32;36.22;;;0.30;94.60;;;;;;5055091;28;20108;-82
2023/01/25 08:12:05;;;;;;;66.00;34.78;;;0.20;94.80;;;;;;5054085;28;20037;-84
2023/01/25 08:14:31;;;;;;;73.28;35.20;;;0.30;94.70;;;;;;5038538;28;20047;-78
2023/01/25 08:16:57;;;;;;;67.78;34.03;;;0.30;94.80;;;;;;5036491;28;20057;-83
2023/01/25 08:19:23;;;;;;;65.20;31.48;;;0.30;94.80;;;;;;5038509;28;20049;-82
2023/01/25 08:21:49;;;;;;;65.93;33.08;;;0.30;95.00;;;;;;5055055;28;20119;-80
2023/01/25 08:24:15;;;;;;;70.53;33.30;;;0.30;95.00;;;;;;5038331;28;20132;-83
2023/01/25 08:26:42;;;;;;;69.95;32.05;;;0.20;95.10;;;;;;5054858;28;20036;-81
2023/01/25 08:29:09;;;;;;;68.13;32.22;;;0.30;95.10;;;;;;5022598;28;20248;-79
2023/01/25 08:31:36;;;;;;;62.78;29.70;;;0.20;95.30;;;;;;5054936;28;20033;-80
2023/01/25 08:34:02;;;;;;;58.28;28.58;;;0.30;95.00;;;;;;5054805;28;20078;-81
2023/01/25 08:36:28;;;;;;;50.88;23.20;;;0.30;95.10;;;;;;5053966;28;20040;-81
2023/01/25 08:39:00;;;;;;;52.60;25.38;;;0.20;95.30;;;;;;5038091;28;20133;-80
2023/01/25 08:41:28;;;;;;;53.00;23.70;;;0.20;95.30;;;;;;5038185;28;20048;-82
2023/01/25 08:43:54;;;;;;;54.20;25.80;;;0.20;95.30;;;;;;5021707;28;20127;-78
2023/01/25 08:46:22;;;;;;;52.85;25.08;;;0.20;95.30;;;;;;5054556;28;20559;-80
2023/01/25 08:48:53;;;;;;;54.17;24.77;;;0.20;95.40;;;;;;5054807;28;20037;-79
2023/01/25 08:51:19;;;;;;;57.92;27.20;;;0.20;95.40;;;;;;5053402;28;20052;-82
2023/01/25 08:53:45;;;;;;;61.53;28.08;;;0.20;95.50;;;;;;5054315;28;20041;-79
2023/01/25 08:56:13;;;;;;;66.63;31.15;;;0.30;95.30;;;;;;5054726;28;20051;-80
2023/01/25 08:58:44;;;;;;;65.03;28.35;;;0.30;95.50;;;;;;5037658;28;20037;-80
2023/01/25 09:01:12;;;;;;;72.20;32.00;;;0.20;95.80;;;;;;5037961;28;20140;-80
2023/01/25 09:03:43;;;;;;;68.40;29.30;;;0.30;95.90;;;;;;5036592;28;20079;-81
2023/01/25 09:06:10;;;;;;;72.97;32.10;;;0.30;95.90;;;;;;5017769;28;20049;-83
2023/01/25 09:08:39;;;;;;;78.30;34.45;;;0.40;95.90;;;;;;5028636;28;20033;-80
2023/01/25 09:11:07;;;;;;;83.10;34.30;;;0.30;95.90;;;;;;5053261;28;20116;-80
2023/01/25 09:13:33;;;;;;;71.03;31.65;;;0.40;96.00;;;;;;5037627;28;20041;-80
2023/01/25 09:16:02;;;;;;;77.15;32.33;;;0.40;96.10;;;;;;5037413;28;20072;-78
2023/01/25 09:18:29;;;;;;;70.63;31.55;;;0.40;96.10;;;;;;5037377;28;20075;-79
2023/01/25 09:20:55;;;;;;;77.93;30.02;;;0.40;95.90;;;;;;5020922;28;20053;-79
2023/01/25 09:23:22;;;;;;;77.63;30.77;;;0.40;96.10;;;;;;5037281;28;20050;-79
2023/01/25 09:25:55;;;;;;;71.65;29.50;;;0.40;96.20;;;;;;5036623;28;20049;-80
2023/01/25 09:28:20;;;;;;;73.28;31.50;;;0.40;96.30;;;;;;5053840;28;20033;-78
2023/01/25 09:30:54;;;;;;;89.38;33.95;;;0.40;96.20;;;;;;5037432;28;20044;-81
2023/01/25 09:33:19;;;;;;;87.57;37.17;;;0.40;96.30;;;;;;5054016;28;20040;-81
2023/01/25 09:35:48;;;;;;;79.72;34.55;;;0.40;96.30;;;;;;5037019;28;20425;-80
2023/01/25 09:38:14;;;;;;;86.43;33.05;;;0.50;96.20;;;;;;5020873;28;20386;-79
2023/01/25 09:40:50;;;;;;;89.95;33.30;;;0.50;96.30;;;;;;5053800;28;20033;-80
2023/01/25 09:43:19;;;;;;;87.35;33.72;;;0.50;96.30;;;;;;5052439;28;20041;-79
2023/01/25 09:45:46;;;;;;;78.22;31.63;;;0.40;96.30;;;;;;5036709;28;20044;-80
2023/01/25 09:48:36;;;;;;;88.25;33.55;;;0.40;96.40;;;;;;5037153;28;20051;-78
2023/01/25 09:51:05;;;;;;;83.95;34.45;;;0.50;96.40;;;;;;5053780;28;20045;-80
2023/01/25 09:53:37;;;;;;;91.80;33.28;;;0.50;96.30;;;;;;5036883;28;20130;-80
2023/01/25 09:56:28;;;;;;;89.70;33.22;;;0.50;96.40;;;;;;5053292;28;20049;-79
2023/01/25 09:59:02;;;;;;;81.40;34.67;;;0.50;96.60;;;;;;5035710;28;20047;-80
2023/01/25 10:01:52;;;;;;;76.07;27.85;;;0.50;96.50;;;;;;5053281;28;20548;-79
2023/01/25 10:04:21;;;;;;;89.53;35.35;;;0.50;96.60;;;;;;5051981;28;20048;-80
2023/01/25 10:06:53;;;;;;;92.43;36.42;;;0.50;96.60;;;;;;5036465;28;20041;-79
2023/01/25 10:09:32;;;;;;;83.28;32.83;;;0.50;96.50;;;;;;5036448;28;20045;-80
2023/01/25 10:12:11;;;;;;;91.72;34.00;;;0.60;96.60;;;;;;5036405;28;20045;-80
2023/01/25 10:14:37;;;;;;;81.28;33.80;;;0.60;96.50;;;;;;5053241;28;20044;-80
2023/01/25 10:17:10;;;;;;;86.93;34.60;;;0.50;96.60;;;;;;5036101;28;20049;-82
2023/01/25 10:19:54;;;;;;;89.43;34.90;;;0.60;96.50;;;;;;5035515;28;20123;-80
2023/01/25 10:22:28;;;;;;;90.90;35.10;;;0.60;96.60;;;;;;5051990;28;20300;-81
2023/01/25 10:25:30;;;;;;;98.73;35.27;;;0.60;96.50;;;;;;5052750;28;20284;-82
2023/01/25 10:28:11;;;;;;;89.47;36.45;;;0.50;96.70;;;;;;5052648;28;20512;-81
2023/01/25 10:30:46;;;;;;;109.47;37.20;;;0.60;96.70;;;;;;5052905;28;20044;-81
2023/01/25 10:33:18;;;;;;;103.35;35.00;;;0.60;96.50;;;;;;5069277;28;20497;-82
2023/01/25 10:35:46;;;;;;;96.60;35.08;;;0.60;96.50;;;;;;5052412;28;20045;-85
2023/01/25 10:38:33;;;;;;;105.38;36.08;;;0.60;96.60;;;;;;5018322;28;20124;-80
2023/01/25 10:41:06;;;;;;;106.65;38.63;;;0.60;96.60;;;;;;5035877;28;20075;-82
2023/01/25 10:43:31;;;;;;;105.68;39.35;;;0.50;96.60;;;;;;5035844;28;20045;-82
2023/01/25 10:45:57;;;;;;;119.85;40.63;;;0.60;96.60;;;;;;5035563;28;20048;-82
2023/01/25 10:48:27;;;;;;;128.98;42.55;;;0.60;96.70;;;;;;5035661;28;20045;-82
2023/01/25 10:50:55;;;;;;;123.53;40.63;;;0.60;97.00;;;;;;5052345;28;20037;-84
2023/01/25 10:53:35;;;;;;;119.72;42.08;;;0.60;96.80;;;;;;5035568;28;20075;-81
2023/01/25 10:56:10;;;;;;;111.43;41.50;;;0.60;96.80;;;;;;5034640;28;20029;-80
2023/01/25 10:58:41;;;;;;;122.72;42.10;;;0.60;96.90;;;;;;5035492;28;20037;-81
2023/01/25 11:01:11;;;;;;;116.13;42.33;;;0.70;96.90;;;;;;5035532;28;20037;-79
2023/01/25 11:03:45;;;;;;;113.53;40.95;;;0.70;96.80;;;;;;5052306;28;20099;-82
2023/01/25 11:06:11;;;;;;;123.15;45.30;;;0.70;96.90;;;;;;5035661;28;20095;-80
2023/01/25 11:08:41;;;;;;;121.70;43.65;;;0.70;96.90;;;;;;5035449;28;20041;-79
2023/01/25 11:11:33;;;;;;;125.97;42.05;;;0.80;97.00;;;;;;5035573;28;20037;-79
2023/01/25 11:13:59;;;;;;;112.10;42.17;;;0.80;97.10;;;;;;5050543;28;20040;-81
2023/01/25 11:16:29;;;;;;;115.55;42.95;;;0.90;96.70;;;;;;5051770;28;20060;-82
2023/01/25 11:18:57;;;;;;;118.13;44.00;;;0.90;96.80;;;;;;5035204;28;20048;-81
2023/01/25 11:21:26;;;;;;;111.75;42.67;;;0.90;97.00;;;;;;5051805;28;20052;-82
2023/01/25 11:24:02;;;;;;;112.68;42.17;;;0.90;96.80;;;;;;5034999;28;20041;-79
2023/01/25 11:26:30;;;;;;;121.00;42.58;;;0.90;96.60;;;;;;5048812;28;20033;-79
2023/01/25 11:29:15;;;;;;;117.25;45.40;;;1.00;96.80;;;;;;5040655;28;20034;-80
2023/01/25 11:31:46;;;;;;;106.35;40.90;;;0.90;96.90;;;;;;5045801;28;20037;-80
2023/01/25 11:34:25;;;;;;;118.03;41.65;;;1.00;96.90;;;;;;5051643;28;20120;-80
2023/01/25 11:37:05;;;;;;;109.28;42.88;;;0.90;96.90;;;;;;5051496;28;20056;-80
2023/01/25 11:39:43;;;;;;;109.43;40.50;;;1.00;97.00;;;;;;5034761;28;20507;-80
2023/01/25 11:42:41;;;;;;;118.80;44.22;;;1.00;96.90;;;;;;5051393;28;20037;-78
2023/01/25 11:45:26;;;;;;;108.30;43.17;;;1.00;97.00;;;;;;5068211;28;20067;-80
2023/01/25 11:47:51;;;;;;;108.25;41.70;;;1.10;96.90;;;;;;5050169;28;20044;-78
2023/01/25 11:50:41;;;;;;;107.90;41.13;;;1.10;97.00;;;;;;5035120;28;20045;-80
2023/01/25 11:53:25;;;;;;;100.85;39.28;;;1.10;96.90;;;;;;5051776;28;20123;-81
2023/01/25 11:56:18;;;;;;;106.47;40.25;;;1.10;96.80;;;;;;5034703;28;20124;-79
2023/01/25 11:59:08;;;;;;;112.88;41.45;;;1.10;96.80;;;;;;5034889;28;20127;-82
2023/01/25 12:01:52;;;;;;;101.78;41.30;;;1.10;96.80;;;;;;5034822;28;20040;-81
2023/01/25 12:04:41;;;;;;;100.80;36.85;;;1.10;96.60;;;;;;5050200;28;20075;-81
2023/01/25 12:07:16;;;;;;;108.15;41.60;;;1.10;96.70;;;;;;5051297;28;20131;-81
2023/01/25 12:09:55;;;;;;;103.78;39.67;;;1.20;96.60;;;;;;5034666;28;20037;-80
2023/01/25 12:12:36;;;;;;;101.20;39.75;;;1.20;96.50;;;;;;5051602;28;20128;-80
2023/01/25 12:15:08;;;;;;;103.93;41.25;;;1.30;96.50;;;;;;5051665;28;20041;-80
2023/01/25 12:17:46;;;;;;;99.28;39.25;;;1.30;96.40;;;;;;5034793;28;20516;-79
2023/01/25 12:20:33;;;;;;;103.20;39.25;;;1.30;96.50;;;;;;5050324;28;20037;-80
2023/01/25 12:23:28;;;;;;;102.13;43.20;;;1.30;96.60;;;;;;5051253;28;20044;-81
2023/01/25 12:25:57;;;;;;;;;;;1.30;96.60;;;;;;5034834;28;20049;-81
2023/01/25 12:28:34;;;;;;;99.53;38.55;;;1.30;96.60;;;;;;5051067;28;19917;-81
2023/01/25 12:31:06;;;;;;;102.25;40.70;;;1.40;96.50;;;;;;5051168;28;20044;-81
2023/01/25 12:33:44;;;;;;;93.97;41.17;;;1.40;96.50;;;;;;5051153;28;20049;-83
2023/01/25 12:36:34;;;;;;;101.55;41.88;;;1.40;96.50;;;;;;5050134;28;20086;-79
2023/01/25 12:39:11;;;;;;;101.57;41.90;;;1.50;96.50;;;;;;5034475;28;20099;-81
2023/01/25 12:41:43;;;;;;;98.45;41.72;;;1.40;96.50;;;;;;5051031;28;20037;-78
2023/01/25 12:44:29;;;;;;;101.28;41.47;;;1.50;96.40;;;;;;5037615;28;20079;-83
2023/01/25 12:47:06;;;;;;;91.18;38.60;;;1.60;96.30;;;;;;5038005;28;20037;-80
2023/01/25 12:49:43;;;;;;;84.90;35.97;;;1.60;96.30;;;;;;5038363;28;20037;-80